Time;durP1;ratioP1;P1;durP2;ratioP2;P2;SDS_P1;SDS_P2;PMS_P1;PMS_P2;Temp;Humidity;BMP_temperature;BMP_pressure;BME280_temperature;BME280_humidity;BME280_pressure;Samples;Min_cycle;Max_cycle;Signal;HPM_P1;HPM_P2
2021/03/03 04:32:54;;;;;;;20.87;14.03;;;;;;;9.30;50.57;100111.28;7222279;23;20275;-87
2021/03/03 04:36:15;;;;;;;20.50;13.97;;;;;;;9.25;50.71;100123.50;6896117;28;20679;-86
2021/03/03 04:39:36;;;;;;;21.50;14.33;;;;;;;8.81;50.39;100052.13;6893253;28;20228;-86
2021/03/03 04:42:57;;;;;;;20.33;13.93;;;;;;;9.07;51.24;100109.34;6870079;28;20232;-88
2021/03/03 04:46:18;;;;;;;22.37;14.17;;;;;;;9.31;50.58;100141.69;6892618;28;20197;-86
2021/03/03 04:49:40;;;;;;;21.57;14.43;;;;;;;9.33;50.51;100120.88;6892593;28;20226;-87
2021/03/03 04:53:01;;;;;;;22.67;13.97;;;;;;;9.28;50.24;100120.50;6892517;28;20220;-87
2021/03/03 04:56:22;;;;;;;23.03;13.87;;;;;;;9.38;50.17;100122.03;6893644;28;20232;-86
2021/03/03 04:59:44;;;;;;;23.83;16.00;;;;;;;9.20;50.98;100120.47;6891881;28;20223;-86
2021/03/03 05:03:06;;;;;;;20.93;13.67;;;;;;;8.93;51.21;100077.72;6893029;28;20236;-86
2021/03/03 05:06:28;;;;;;;22.97;14.80;;;;;;;9.18;51.11;100119.81;6892760;28;20221;-87
2021/03/03 05:09:49;;;;;;;21.03;13.83;;;;;;;9.17;51.27;100110.06;6891547;28;20205;-86
2021/03/03 05:13:15;;;;;;;22.40;13.60;;;;;;;9.18;51.20;100090.22;6892803;28;20221;-86
2021/03/03 05:16:36;;;;;;;21.90;13.57;;;;;;;9.36;50.67;100112.44;6892318;28;20264;-87
2021/03/03 05:19:57;;;;;;;23.20;15.13;;;;;;;9.13;50.77;100090.72;6890712;28;20213;-87
2021/03/03 05:23:27;;;;;;;19.80;14.53;;;;;;;9.28;50.73;100107.06;6888738;28;20244;-86
2021/03/03 05:26:48;;;;;;;22.43;14.70;;;;;;;9.05;50.40;100087.16;6893242;28;20216;-86
2021/03/03 05:30:10;;;;;;;20.43;15.23;;;;;;;9.16;50.53;100078.78;6891902;28;20209;-87
2021/03/03 05:33:33;;;;;;;25.90;16.47;;;;;;;9.13;50.89;100101.47;6893353;28;20213;-86
2021/03/03 05:37:09;;;;;;;23.20;15.27;;;;;;;9.21;50.52;100060.28;6895027;28;20201;-87
2021/03/03 05:40:31;;;;;;;22.33;14.80;;;;;;;9.21;50.74;100104.16;6890198;28;20232;-87
2021/03/03 05:43:52;;;;;;;25.73;15.50;;;;;;;9.42;50.11;100090.25;6890267;28;20205;-86
2021/03/03 05:47:23;;;;;;;23.40;15.00;;;;;;;9.42;50.15;100096.47;6891709;28;20212;-88
2021/03/03 05:50:56;;;;;;;19.97;14.33;;;;;;;8.31;50.55;99924.94;6887914;28;20221;-86
2021/03/03 05:54:22;;;;;;;20.87;14.90;;;;;;;8.24;51.02;99952.66;6889935;28;20224;-87
2021/03/03 05:57:44;;;;;;;19.57;14.70;;;;;;;9.20;51.10;100102.50;6890727;28;20212;-84
2021/03/03 06:01:07;;;;;;;21.33;14.10;;;;;;;9.26;50.67;100074.06;6889844;28;20217;-86
2021/03/03 06:04:41;;;;;;;21.97;14.47;;;;;;;8.78;50.75;99987.09;6892254;28;20196;-84
2021/03/03 06:08:02;;;;;;;23.77;15.07;;;;;;;9.09;51.59;100102.78;6891893;28;20207;-89
2021/03/03 06:11:23;;;;;;;23.73;15.17;;;;;;;9.11;50.74;100073.03;6892631;28;20552;-88
2021/03/03 06:14:45;;;;;;;22.07;15.67;;;;;;;9.42;50.45;100109.09;6892022;28;20232;-88
2021/03/03 06:18:10;;;;;;;23.80;16.00;;;;;;;9.07;51.33;100095.06;6892322;28;20210;-88
2021/03/03 06:21:32;;;;;;;24.00;16.37;;;;;;;9.10;51.40;100104.47;6890378;28;20246;-88
2021/03/03 06:25:27;;;;;;;22.70;14.50;;;;;;;9.33;50.74;100115.47;6892165;28;20208;-87
2021/03/03 06:28:48;;;;;;;25.63;15.80;;;;;;;9.26;50.61;100120.66;6890260;28;20232;-89
2021/03/03 06:32:10;;;;;;;24.37;16.40;;;;;;;9.04;50.86;100128.53;6889328;28;20230;-87
2021/03/03 06:35:37;;;;;;;25.70;16.37;;;;;;;9.06;51.31;100126.50;6887462;28;20255;-88
2021/03/03 06:39:14;;;;;;;26.30;16.43;;;;;;;8.65;52.12;100094.22;6830937;29;20206;-88
2021/03/03 06:42:36;;;;;;;23.47;14.80;;;;;;;9.16;51.01;100133.41;6862792;28;20233;-88
2021/03/03 06:45:58;;;;;;;25.83;15.40;;;;;;;8.85;51.28;100117.19;6866976;28;20209;-88
2021/03/03 06:49:24;;;;;;;26.40;17.27;;;;;;;8.76;51.98;100113.63;6889625;28;20232;-88
2021/03/03 06:52:45;;;;;;;22.97;15.53;;;;;;;9.13;51.37;100132.09;6888922;28;20248;-88
2021/03/03 06:56:07;;;;;;;24.87;17.33;;;;;;;8.46;52.18;100089.09;6888079;28;20693;-82
2021/03/03 06:59:30;;;;;;;28.50;18.33;;;;;;;8.46;52.66;100086.41;6888693;28;20236;-87
2021/03/03 07:02:51;;;;;;;29.83;20.13;;;;;;;8.89;51.44;100142.75;6891100;28;20231;-87
2021/03/03 07:06:31;;;;;;;28.20;18.23;;;;;;;8.54;53.17;100124.09;6891523;28;20205;-87
2021/03/03 07:09:53;;;;;;;23.87;15.53;;;;;;;8.47;52.61;100075.50;6887318;28;20232;-86
2021/03/03 07:13:15;;;;;;;22.67;16.60;;;;;;;8.86;52.97;100133.16;6888652;28;20259;-85
2021/03/03 07:16:36;;;;;;;26.37;17.57;;;;;;;8.83;52.83;100120.03;6888618;28;20229;-86
2021/03/03 07:20:00;;;;;;;29.83;17.57;;;;;;;8.75;53.29;100141.50;6888932;28;20209;-87
2021/03/03 07:23:40;;;;;;;28.80;18.13;;;;;;;9.07;52.63;100149.69;6885091;28;20221;-86
2021/03/03 07:27:03;;;;;;;22.33;16.13;;;;;;;9.27;52.14;100154.66;6884299;28;20208;-84
2021/03/03 07:30:25;;;;;;;21.47;15.80;;;;;;;9.51;50.98;100124.25;6887749;28;20215;-85
2021/03/03 07:33:47;;;;;;;34.13;19.63;;;;;;;9.56;51.10;100138.88;6888146;28;20593;-87
2021/03/03 07:37:09;;;;;;;34.13;18.37;;;;;;;9.42;51.42;100123.41;6887380;28;20272;-87
2021/03/03 07:40:32;;;;;;;25.80;17.30;;;;;;;9.68;50.98;100150.19;6889079;28;20228;-85
2021/03/03 07:43:57;;;;;;;22.27;17.23;;;;;;;9.47;51.40;100141.75;6890159;28;20213;-85
2021/03/03 07:47:24;;;;;;;28.17;17.80;;;;;;;9.73;51.47;100135.22;6881786;28;20260;-86
2021/03/03 07:50:45;;;;;;;35.30;18.63;;;;;;;9.69;51.50;100093.44;6884705;28;20232;-86
2021/03/03 07:54:08;;;;;;;36.87;19.93;;;;;;;10.18;50.18;100126.63;6883532;28;20233;-85
2021/03/03 07:57:34;;;;;;;24.03;15.90;;;;;;;10.25;50.24;100122.22;6883465;28;20286;-85
2021/03/03 08:00:56;;;;;;;24.90;16.03;;;;;;;10.27;50.22;100126.44;6881507;28;20236;-85
2021/03/03 08:04:37;;;;;;;28.70;16.93;;;;;;;10.57;49.59;100128.41;6883090;28;20615;-86
2021/03/03 08:08:26;;;;;;;22.03;16.10;;;;;;;10.92;48.82;100111.75;6878575;28;20269;-86
2021/03/03 08:12:02;;;;;;;20.77;15.03;;;;;;;11.19;48.92;100132.03;6878140;28;20732;-84
2021/03/03 08:15:48;;;;;;;23.47;14.93;;;;;;;11.42;47.90;100116.69;6879980;28;20217;-85
2021/03/03 08:19:12;;;;;;;21.67;16.80;;;;;;;11.11;47.83;100061.91;6872578;28;20297;-84
2021/03/03 08:22:53;;;;;;;28.40;16.67;;;;;;;11.63;47.40;100108.84;6882959;28;20252;-84
2021/03/03 08:26:35;;;;;;;23.17;16.13;;;;;;;11.84;46.81;100111.69;6880113;28;20205;-85
2021/03/03 08:30:11;;;;;;;23.40;16.57;;;;;;;11.84;46.91;100115.25;6874221;28;20218;-84
2021/03/03 08:33:34;;;;;;;25.07;15.53;;;;;;;11.87;46.02;100105.94;6880630;28;20640;-85
2021/03/03 08:37:01;;;;;;;24.93;17.20;;;;;;;11.70;45.98;100058.44;6878281;28;20259;-84
2021/03/03 08:40:26;;;;;;;20.23;14.93;;;;;;;12.19;45.92;100129.97;6861330;28;20209;-86
2021/03/03 08:43:50;;;;;;;19.60;15.53;;;;;;;12.52;44.94;100121.34;6861929;28;20205;-84
2021/03/03 08:47:11;;;;;;;21.07;15.40;;;;;;;12.07;45.19;100080.06;6878756;28;20311;-85
2021/03/03 08:50:37;;;;;;;23.63;16.10;;;;;;;12.57;45.16;100126.22;6880763;28;20240;-85
2021/03/03 08:53:59;;;;;;;24.00;16.60;;;;;;;12.76;44.25;100117.53;6872976;28;20276;-85
2021/03/03 08:57:35;;;;;;;22.27;15.10;;;;;;;12.84;43.51;100120.13;6878359;28;20221;-85
2021/03/03 09:00:56;;;;;;;23.47;15.77;;;;;;;13.01;43.19;100122.50;6879092;28;20646;-84
2021/03/03 09:04:20;;;;;;;22.70;14.87;;;;;;;13.14;43.06;100122.66;6865510;28;20267;-84
2021/03/03 09:07:42;;;;;;;23.37;15.10;;;;;;;12.86;42.66;100036.88;6879307;28;20214;-84
2021/03/03 09:11:04;;;;;;;17.03;13.23;;;;;;;13.11;41.53;100041.78;6868394;28;20222;-83
2021/03/03 09:14:29;;;;;;;19.70;14.13;;;;;;;13.55;41.32;100088.53;6877560;28;20424;-84
2021/03/03 09:17:51;;;;;;;20.43;14.30;;;;;;;13.58;41.62;100090.03;6870688;28;20633;-84
2021/03/03 09:21:12;;;;;;;19.73;13.93;;;;;;;13.74;40.64;100084.34;6861559;28;20244;-84
2021/03/03 09:24:35;;;;;;;21.77;14.63;;;;;;;13.95;40.25;100093.31;6867497;28;20244;-84
2021/03/03 09:27:58;;;;;;;21.37;13.07;;;;;;;13.74;39.86;100081.66;6871495;28;20208;-84
2021/03/03 09:31:29;;;;;;;20.73;13.83;;;;;;;14.22;39.89;100105.25;6893316;28;20222;-85
2021/03/03 09:34:51;;;;;;;20.60;14.47;;;;;;;14.06;40.08;100089.22;6872133;28;20226;-80
2021/03/03 09:38:13;;;;;;;18.80;14.60;;;;;;;14.38;39.93;100104.94;6872156;28;20203;-83
2021/03/03 09:41:35;;;;;;;19.43;14.27;;;;;;;14.63;38.86;100103.44;6870222;28;20232;-79
2021/03/03 09:44:57;;;;;;;19.57;12.63;;;;;;;14.53;38.58;100076.66;6872018;28;20351;-81
2021/03/03 09:48:26;;;;;;;21.23;14.17;;;;;;;14.60;39.16;100101.97;6871077;28;20551;-82
2021/03/03 09:51:48;;;;;;;18.53;13.17;;;;;;;14.53;39.34;100045.97;6850812;28;20235;-81
2021/03/03 09:55:10;;;;;;;22.40;13.47;;;;;;;14.46;37.82;100017.94;6843221;29;20235;-80
2021/03/03 09:58:32;;;;;;;16.83;13.03;;;;;;;14.53;38.07;100081.25;6854675;28;20205;-82
2021/03/03 10:01:54;;;;;;;20.00;14.20;;;;;;;14.72;38.28;100073.22;6868856;28;20233;-82
2021/03/03 10:05:17;;;;;;;25.00;15.70;;;;;;;15.00;38.15;100087.56;6869632;28;20706;-82
2021/03/03 10:08:39;;;;;;;19.43;13.63;;;;;;;15.04;37.62;100086.09;6869596;28;20208;-81
2021/03/03 10:12:00;;;;;;;16.00;12.13;;;;;;;14.96;37.38;100053.69;6867821;28;20238;-81
2021/03/03 10:15:23;;;;;;;19.23;12.97;;;;;;;14.95;37.43;100083.75;6849222;28;20254;-81
2021/03/03 10:18:58;;;;;;;17.73;12.87;;;;;;;15.21;36.97;100084.72;6869233;28;20209;-81
2021/03/03 10:22:20;;;;;;;18.10;12.23;;;;;;;15.05;37.32;100086.97;6867849;28;20240;-82
2021/03/03 10:25:44;;;;;;;17.93;12.93;;;;;;;15.04;37.36;100071.69;6868108;28;20267;-81
2021/03/03 10:29:05;;;;;;;20.47;12.73;;;;;;;15.18;36.42;100038.09;6868194;28;20779;-81
2021/03/03 10:32:27;;;;;;;15.93;11.97;;;;;;;15.73;36.58;100094.91;6865670;28;20595;-81
2021/03/03 10:35:50;;;;;;;19.63;13.10;;;;;;;15.43;36.26;100099.03;6867712;28;20209;-82
2021/03/03 10:39:11;;;;;;;17.67;12.43;;;;;;;15.72;36.21;100099.53;6855019;28;20665;-82
2021/03/03 10:42:32;;;;;;;16.03;12.60;;;;;;;15.92;35.88;100086.78;6862333;28;20231;-81
2021/03/03 10:46:08;;;;;;;14.70;11.73;;;;;;;16.20;35.27;100084.69;6868001;28;20673;-82
2021/03/03 10:49:31;;;;;;;20.00;13.20;;;;;;;16.21;35.25;100080.91;6849367;28;20713;-81
2021/03/03 10:52:57;;;;;;;16.00;12.10;;;;;;;15.93;34.85;100063.97;6859093;28;20268;-81
2021/03/03 10:56:29;;;;;;;15.87;11.53;;;;;;;15.99;34.65;100040.53;6867532;28;20698;-81
2021/03/03 11:00:01;;;;;;;18.10;12.13;;;;;;;16.47;34.34;100077.38;6866952;28;20207;-82
2021/03/03 11:03:22;;;;;;;17.27;12.87;;;;;;;16.53;34.04;100071.94;6866881;28;20234;-81
2021/03/03 11:06:46;;;;;;;18.23;11.30;;;;;;;16.74;33.30;100049.84;6867227;28;20212;-82
2021/03/03 11:10:11;;;;;;;20.60;11.17;;;;;;;16.78;33.29;100063.88;6866603;28;20311;-82
2021/03/03 11:13:34;;;;;;;15.93;11.60;;;;;;;16.70;32.86;100036.91;6867845;28;20204;-81
2021/03/03 11:16:55;;;;;;;13.37;11.43;;;;;;;16.77;33.03;100051.31;6867883;28;20233;-80
2021/03/03 11:20:17;;;;;;;16.30;11.83;;;;;;;17.15;32.29;100042.16;6866231;28;20206;-81
2021/03/03 11:23:39;;;;;;;17.23;11.73;;;;;;;17.14;32.67;100054.09;6866833;28;20650;-82
2021/03/03 11:27:06;;;;;;;13.67;10.27;;;;;;;17.04;32.22;100047.47;6863285;28;20650;-82
2021/03/03 11:30:28;;;;;;;21.57;11.57;;;;;;;17.22;31.57;100023.03;6861383;28;20267;-81
2021/03/03 11:33:49;;;;;;;14.47;11.17;;;;;;;17.40;31.15;99990.47;6866557;28;20209;-82
2021/03/03 11:37:10;;;;;;;15.07;10.27;;;;;;;17.57;30.32;100024.31;6866031;28;20248;-82
2021/03/03 11:40:32;;;;;;;15.70;10.47;;;;;;;17.59;31.31;100008.56;6865848;28;20229;-81
2021/03/03 11:43:53;;;;;;;14.10;10.20;;;;;;;18.04;30.51;100018.28;6865696;28;20209;-82
2021/03/03 11:47:14;;;;;;;15.83;11.23;;;;;;;17.80;30.57;99992.66;6863123;28;20311;-82
2021/03/03 11:50:36;;;;;;;17.43;10.87;;;;;;;18.09;31.12;100010.22;6842806;28;20270;-81
2021/03/03 11:53:57;;;;;;;13.87;10.10;;;;;;;18.18;29.85;100004.28;6843131;28;20589;-81
2021/03/03 11:57:19;;;;;;;15.30;10.27;;;;;;;18.32;29.61;99986.75;6845280;29;20202;-81
2021/03/03 12:00:43;;;;;;;17.37;9.77;;;;;;;18.31;30.29;99986.91;6837254;28;20230;-81
2021/03/03 12:04:04;;;;;;;14.00;9.90;;;;;;;18.62;29.09;99990.38;6838439;29;20220;-81
2021/03/03 12:07:25;;;;;;;14.03;9.80;;;;;;;18.80;28.37;99997.75;6859916;28;20725;-81
2021/03/03 12:10:47;;;;;;;14.87;9.53;;;;;;;18.96;28.50;99977.97;6865451;28;20233;-82
2021/03/03 12:14:09;;;;;;;16.43;10.00;;;;;;;18.93;28.13;99984.72;6868722;28;20228;-82
2021/03/03 12:17:30;;;;;;;17.17;10.50;;;;;;;18.81;28.09;99975.66;6865052;28;20229;-82
2021/03/03 12:20:51;;;;;;;13.87;9.53;;;;;;;19.08;28.36;99976.13;6864272;28;20230;-81
2021/03/03 12:24:12;;;;;;;15.97;10.43;;;;;;;19.25;28.38;99971.72;6864494;28;20205;-82
2021/03/03 12:27:34;;;;;;;16.30;10.73;;;;;;;19.09;27.86;99932.16;6864877;28;20216;-80
2021/03/03 12:30:56;;;;;;;16.60;11.63;;;;;;;19.48;27.49;99961.69;6863719;28;20240;-82
2021/03/03 12:34:17;;;;;;;21.83;11.03;;;;;;;19.51;27.73;99952.19;6864450;28;20236;-82
2021/03/03 12:37:38;;;;;;;19.20;10.00;;;;;;;19.77;27.44;99969.00;6863425;28;20201;-82
2021/03/03 12:40:59;;;;;;;13.57;10.17;;;;;;;19.13;26.95;99949.78;6856050;28;20272;-82
2021/03/03 12:44:21;;;;;;;17.97;12.00;;;;;;;18.90;27.59;99880.50;6843320;29;20205;-82
2021/03/03 12:47:43;;;;;;;15.57;9.93;;;;;;;18.92;27.26;99946.72;6843252;29;20213;-82
2021/03/03 12:51:05;;;;;;;15.77;10.97;;;;;;;18.94;27.42;99944.59;6843049;28;20263;-82
2021/03/03 12:54:26;;;;;;;18.50;11.20;;;;;;;18.89;26.91;99949.91;6842756;29;20603;-83
2021/03/03 12:57:48;;;;;;;14.60;10.50;;;;;;;18.83;27.57;99929.81;6856868;28;20207;-83
2021/03/03 13:01:09;;;;;;;17.53;10.40;;;;;;;18.95;27.65;99907.97;6856215;28;20222;-82
2021/03/03 13:04:31;;;;;;;17.50;10.83;;;;;;;19.39;27.19;99933.00;6843323;29;20211;-83
2021/03/03 13:07:52;;;;;;;14.83;10.67;;;;;;;19.74;27.16;99930.34;6843119;29;20685;-82
2021/03/03 13:11:13;;;;;;;18.47;11.73;;;;;;;19.48;29.17;99930.75;6841162;29;20233;-82
2021/03/03 13:14:34;;;;;;;15.57;11.57;;;;;;;19.87;28.49;99927.34;6842868;29;20309;-83
2021/03/03 13:17:55;;;;;;;18.03;11.40;;;;;;;19.67;28.52;99929.59;6842520;29;20820;-82
2021/03/03 13:21:18;;;;;;;20.07;12.33;;;;;;;19.40;29.87;99920.97;6841702;29;20240;-82
2021/03/03 13:24:39;;;;;;;14.97;11.77;;;;;;;18.81;30.26;99911.97;6864671;28;20213;-82
2021/03/03 13:28:00;;;;;;;22.63;13.13;;;;;;;19.30;29.66;99918.00;6868279;28;20658;-82
2021/03/03 13:31:22;;;;;;;15.17;11.43;;;;;;;19.40;29.65;99906.50;6867826;28;20590;-82
2021/03/03 13:34:43;;;;;;;15.87;10.53;;;;;;;19.45;28.67;99918.38;6867730;28;20231;-83
2021/03/03 13:38:05;;;;;;;17.20;10.93;;;;;;;19.31;29.43;99906.00;6867396;28;20212;-82
2021/03/03 13:41:26;;;;;;;18.17;11.23;;;;;;;19.37;29.81;99910.53;6867443;28;20278;-83
2021/03/03 13:44:47;;;;;;;18.70;12.83;;;;;;;19.55;29.62;99901.38;6868443;28;20227;-83
2021/03/03 13:48:09;;;;;;;18.97;11.97;;;;;;;19.56;29.78;99900.31;6868512;28;20685;-82
2021/03/03 13:51:30;;;;;;;23.93;13.80;;;;;;;19.48;30.02;99889.72;6867121;28;20226;-82
2021/03/03 13:54:52;;;;;;;20.07;12.67;;;;;;;19.64;30.14;99892.56;6868181;28;20229;-82
2021/03/03 13:58:13;;;;;;;17.67;12.73;;;;;;;19.68;29.69;99863.69;6867450;28;20205;-83
2021/03/03 14:01:34;;;;;;;20.53;14.13;;;;;;;19.89;28.96;99857.63;6867329;28;20245;-82
2021/03/03 14:04:56;;;;;;;17.17;12.27;;;;;;;19.72;29.16;99869.50;6863895;28;20213;-83
2021/03/03 14:08:20;;;;;;;18.07;11.67;;;;;;;18.54;30.11;99817.78;6868573;28;20217;-82
2021/03/03 14:11:42;;;;;;;16.60;11.73;;;;;;;19.41;29.84;99873.41;6869769;28;20229;-83
2021/03/03 14:15:04;;;;;;;17.37;12.37;;;;;;;19.63;29.18;99868.22;6861349;28;20230;-82
2021/03/03 14:18:25;;;;;;;19.63;10.90;;;;;;;19.02;29.59;99868.56;6868156;28;20225;-83
2021/03/03 14:21:46;;;;;;;21.00;11.83;;;;;;;19.43;29.37;99873.19;6867480;28;20221;-82
2021/03/03 14:25:08;;;;;;;20.50;12.50;;;;;;;19.25;29.53;99846.75;6868884;28;20569;-83
2021/03/03 14:28:31;;;;;;;17.30;12.10;;;;;;;19.55;29.42;99863.06;6867879;28;20228;-81
2021/03/03 14:31:52;;;;;;;19.60;12.73;;;;;;;18.30;30.93;99851.47;6864716;28;20240;-80
2021/03/03 14:35:13;;;;;;;18.53;11.97;;;;;;;19.08;30.30;99862.16;6866607;28;20237;-82
2021/03/03 14:38:36;;;;;;;19.13;11.13;;;;;;;18.76;30.80;99855.25;6866747;28;20216;-83
2021/03/03 14:41:57;;;;;;;23.60;12.63;;;;;;;18.92;30.25;99856.53;6866341;28;20240;-83
2021/03/03 14:45:19;;;;;;;17.90;12.83;;;;;;;19.01;29.96;99847.75;6866291;28;20210;-82
2021/03/03 14:48:40;;;;;;;21.10;12.13;;;;;;;19.19;29.90;99823.06;6865325;28;20209;-82
2021/03/03 14:52:02;;;;;;;18.60;12.47;;;;;;;18.82;30.68;99775.09;6866553;28;20225;-83
2021/03/03 14:55:23;;;;;;;19.53;12.33;;;;;;;18.99;30.76;99829.91;6866852;28;20260;-82
2021/03/03 14:58:44;;;;;;;19.20;11.00;;;;;;;18.37;31.89;99801.22;6866460;28;20674;-83
2021/03/03 15:02:07;;;;;;;16.83;11.50;;;;;;;19.05;30.81;99828.97;6865359;28;20238;-82
2021/03/03 15:05:28;;;;;;;21.03;12.27;;;;;;;19.19;31.16;99822.22;6865360;28;20202;-83
2021/03/03 15:08:49;;;;;;;20.17;12.73;;;;;;;18.96;31.58;99822.19;6865863;28;20208;-82
2021/03/03 15:12:11;;;;;;;19.73;11.63;;;;;;;19.24;31.43;99814.19;6864712;28;20578;-82
2021/03/03 15:15:34;;;;;;;22.80;13.90;;;;;;;17.92;33.36;99816.22;6865660;28;20233;-82
2021/03/03 15:18:56;;;;;;;20.53;12.77;;;;;;;18.20;33.09;99816.53;6865750;28;20201;-83
2021/03/03 15:22:17;;;;;;;17.47;12.37;;;;;;;18.45;32.66;99770.00;6865356;28;20690;-82
2021/03/03 15:25:38;;;;;;;23.37;12.77;;;;;;;18.77;32.49;99796.00;6866840;28;20205;-82
2021/03/03 15:28:59;;;;;;;22.33;12.77;;;;;;;18.66;32.48;99789.44;6865095;28;20213;-82
2021/03/03 15:32:20;;;;;;;21.07;13.17;;;;;;;18.26;33.00;99779.25;6864534;28;20275;-82
2021/03/03 15:35:42;;;;;;;19.77;12.97;;;;;;;18.88;32.35;99798.75;6865409;28;20238;-83
2021/03/03 15:39:05;;;;;;;19.60;12.40;;;;;;;18.78;32.57;99781.25;6865362;28;20206;-82
2021/03/03 15:42:26;;;;;;;20.87;11.87;;;;;;;18.81;32.33;99787.09;6863638;28;20233;-83
2021/03/03 15:45:47;;;;;;;18.10;11.20;;;;;;;18.62;32.91;99787.38;6866341;28;20235;-82
2021/03/03 15:49:08;;;;;;;18.53;11.73;;;;;;;18.99;32.26;99784.28;6866416;28;20201;-82
2021/03/03 15:52:30;;;;;;;19.10;11.50;;;;;;;19.00;32.59;99782.38;6863858;28;20229;-83
2021/03/03 15:55:52;;;;;;;17.63;10.97;;;;;;;18.89;33.05;99780.47;6838915;29;20806;-83
2021/03/03 15:59:13;;;;;;;27.90;11.80;;;;;;;18.83;33.29;99765.00;6837775;29;20214;-84
2021/03/03 16:02:35;;;;;;;17.27;11.27;;;;;;;18.68;33.35;99767.31;6849276;28;20226;-83
2021/03/03 16:05:56;;;;;;;17.37;11.00;;;;;;;18.56;33.69;99750.06;6843417;28;20209;-83
2021/03/03 16:09:18;;;;;;;20.77;11.43;;;;;;;18.65;34.13;99773.28;6864515;28;20205;-82
2021/03/03 16:12:39;;;;;;;21.03;12.10;;;;;;;18.57;33.82;99768.16;6850976;28;20226;-82
2021/03/03 16:16:01;;;;;;;20.03;11.80;;;;;;;18.48;34.52;99769.53;6862091;28;20593;-82
2021/03/03 16:19:22;;;;;;;18.87;11.23;;;;;;;17.97;35.74;99767.25;6870788;28;20236;-83
2021/03/03 16:22:43;;;;;;;17.17;10.97;;;;;;;17.82;35.84;99764.06;6861900;28;20229;-83
2021/03/03 16:26:05;;;;;;;14.70;10.70;;;;;;;17.67;35.61;99763.63;6869220;28;20204;-83
2021/03/03 16:29:26;;;;;;;19.23;11.43;;;;;;;17.65;35.55;99757.59;6843593;29;20216;-85
2021/03/03 16:32:48;;;;;;;17.67;11.73;;;;;;;17.71;35.89;99756.69;6842427;28;20232;-83
2021/03/03 16:36:12;;;;;;;18.77;12.43;;;;;;;17.80;35.69;99747.13;6863895;28;20236;-83
2021/03/03 16:39:33;;;;;;;18.60;12.87;;;;;;;17.66;36.09;99742.88;6866068;28;20608;-82
2021/03/03 16:42:56;;;;;;;22.63;13.03;;;;;;;17.69;36.41;99750.59;6870621;28;20602;-82
2021/03/03 16:46:17;;;;;;;27.23;14.00;;;;;;;17.64;36.84;99749.63;6870605;28;20230;-82
2021/03/03 16:49:38;;;;;;;19.60;12.07;;;;;;;17.47;37.49;99741.22;6869754;28;20544;-82
2021/03/03 16:53:00;;;;;;;19.97;11.73;;;;;;;16.46;39.32;99694.56;6865206;28;20226;-83
2021/03/03 16:56:23;;;;;;;23.20;12.80;;;;;;;16.21;40.35;99715.44;6889721;28;20220;-82
2021/03/03 16:59:45;;;;;;;23.10;15.23;;;;;;;16.73;39.52;99754.03;6842655;29;20200;-84
2021/03/03 17:03:08;;;;;;;27.93;17.57;;;;;;;16.62;39.43;99713.06;6858971;28;20258;-82
2021/03/03 17:06:30;;;;;;;31.13;17.43;;;;;;;16.37;38.88;99668.63;6870027;28;20284;-83
2021/03/03 17:09:54;;;;;;;27.37;16.80;;;;;;;16.41;38.61;99706.13;6869712;28;20209;-83
2021/03/03 17:13:15;;;;;;;30.93;16.60;;;;;;;16.60;38.71;99734.25;6870113;28;20240;-82
2021/03/03 17:16:37;;;;;;;24.70;14.83;;;;;;;16.11;39.21;99725.97;6869676;28;20237;-83
2021/03/03 17:20:00;;;;;;;22.20;12.83;;;;;;;15.88;40.28;99723.78;6869452;28;20205;-83
2021/03/03 17:23:21;;;;;;;20.13;13.00;;;;;;;16.25;39.53;99738.44;6868903;28;20254;-83
2021/03/03 17:26:42;;;;;;;20.43;12.00;;;;;;;16.10;39.88;99727.84;6868709;28;20243;-83
2021/03/03 17:30:07;;;;;;;18.10;11.73;;;;;;;16.05;40.12;99745.88;6868098;28;20297;-83
2021/03/03 17:33:29;;;;;;;19.40;11.73;;;;;;;15.83;40.32;99739.94;6868198;28;20228;-83
2021/03/03 17:36:50;;;;;;;18.83;10.93;;;;;;;15.56;41.06;99754.66;6869094;28;20583;-82
2021/03/03 17:40:13;;;;;;;23.37;12.60;;;;;;;15.25;41.88;99759.94;6868340;28;20207;-83
2021/03/03 17:43:34;;;;;;;23.60;14.47;;;;;;;15.28;41.69;99764.94;6869150;28;20216;-82
2021/03/03 17:46:55;;;;;;;20.80;15.47;;;;;;;14.64;43.17;99744.09;6868415;28;20199;-84
2021/03/03 17:50:20;;;;;;;28.23;15.17;;;;;;;14.55;42.85;99746.19;6868325;28;20213;-82
2021/03/03 17:53:41;;;;;;;25.63;14.33;;;;;;;14.74;42.56;99758.91;6869026;28;20260;-83
2021/03/03 17:57:04;;;;;;;26.20;15.27;;;;;;;14.86;42.23;99754.53;6864221;28;20260;-82
2021/03/03 18:00:26;;;;;;;24.07;14.83;;;;;;;14.95;41.88;99757.88;6868005;28;20201;-81
2021/03/03 18:03:47;;;;;;;21.83;13.83;;;;;;;14.91;41.49;99743.03;6868865;28;20205;-84
2021/03/03 18:07:09;;;;;;;23.00;14.50;;;;;;;15.06;41.29;99751.81;6868873;28;20662;-82
2021/03/03 18:10:30;;;;;;;21.77;14.53;;;;;;;14.91;41.60;99759.31;6867429;28;20208;-83
2021/03/03 18:13:51;;;;;;;18.77;13.03;;;;;;;14.70;41.79;99724.25;6868719;28;20219;-83
2021/03/03 18:17:12;;;;;;;19.00;12.07;;;;;;;14.50;42.28;99745.09;6867832;28;20224;-83
2021/03/03 18:20:33;;;;;;;18.50;12.47;;;;;;;14.21;43.17;99759.06;6868405;28;20712;-82
2021/03/03 18:23:55;;;;;;;19.33;12.67;;;;;;;14.42;42.88;99751.59;6871280;28;20234;-83
2021/03/03 18:27:17;;;;;;;19.00;12.93;;;;;;;14.29;42.89;99737.16;6868670;28;20216;-83
2021/03/03 18:30:38;;;;;;;18.57;13.20;;;;;;;14.29;43.36;99756.97;6867315;28;20579;-82
2021/03/03 18:33:59;;;;;;;17.53;11.43;;;;;;;13.87;44.75;99759.13;6868114;28;20570;-83
2021/03/03 18:37:20;;;;;;;15.90;11.10;;;;;;;14.10;44.12;99754.22;6868350;28;20235;-83
2021/03/03 18:40:42;;;;;;;18.50;12.03;;;;;;;14.21;43.62;99753.66;6866238;28;20242;-83
2021/03/03 18:44:04;;;;;;;17.07;10.83;;;;;;;14.32;43.30;99766.59;6865649;28;20210;-82
2021/03/03 18:47:26;;;;;;;18.67;11.87;;;;;;;13.62;44.34;99750.69;6839729;29;20233;-81
2021/03/03 18:50:48;;;;;;;22.00;12.23;;;;;;;13.91;44.03;99755.81;6862012;28;20235;-81
2021/03/03 18:54:09;;;;;;;20.33;11.63;;;;;;;13.95;44.01;99753.53;6866969;28;20210;-82
2021/03/03 18:57:31;;;;;;;38.73;21.47;;;;;;;13.10;45.50;99698.94;6866968;28;20227;-82
2021/03/03 19:00:55;;;;;;;25.20;14.00;;;;;;;13.59;45.02;99732.13;6866795;28;20592;-83
2021/03/03 19:04:16;;;;;;;19.13;12.77;;;;;;;13.23;46.05;99749.63;6867093;28;20301;-85
2021/03/03 19:07:37;;;;;;;19.57;12.70;;;;;;;13.29;45.94;99760.50;6867606;28;20218;-83
2021/03/03 19:10:59;;;;;;;18.30;12.77;;;;;;;13.69;45.33;99748.81;6865288;28;20596;-85
2021/03/03 19:14:21;;;;;;;20.50;13.20;;;;;;;13.72;45.27;99734.03;6867479;28;20218;-81
2021/03/03 19:17:42;;;;;;;18.50;13.90;;;;;;;14.00;44.53;99742.91;6866375;28;20229;-84
2021/03/03 19:21:04;;;;;;;24.33;15.10;;;;;;;13.74;44.66;99745.53;6865836;28;20227;-81
2021/03/03 19:24:25;;;;;;;22.50;14.60;;;;;;;13.50;45.22;99740.59;6861610;28;20211;-86
2021/03/03 19:27:47;;;;;;;24.83;16.70;;;;;;;13.34;45.31;99720.09;6845018;28;20219;-83
2021/03/03 19:31:09;;;;;;;22.73;15.77;;;;;;;13.59;44.94;99740.25;6863968;28;20324;-85
2021/03/03 19:34:30;;;;;;;24.60;14.63;;;;;;;13.63;44.67;99736.09;6855051;28;20202;-84
2021/03/03 19:37:52;;;;;;;28.77;18.03;;;;;;;13.32;45.79;99729.47;6857159;28;20256;-84
2021/03/03 19:41:14;;;;;;;28.83;17.40;;;;;;;12.31;47.54;99695.81;6866359;28;20247;-84
2021/03/03 19:44:35;;;;;;;27.40;17.47;;;;;;;12.96;46.36;99723.41;6865854;28;20217;-83
2021/03/03 19:47:57;;;;;;;27.60;16.50;;;;;;;13.40;45.17;99719.31;6865727;28;20657;-83
2021/03/03 19:51:26;;;;;;;29.67;16.67;;;;;;;13.57;44.45;99717.94;6865467;28;20231;-83
2021/03/03 19:54:47;;;;;;;21.30;15.33;;;;;;;13.54;45.17;99714.78;6866397;28;20718;-83
2021/03/03 19:58:09;;;;;;;22.90;14.53;;;;;;;13.40;45.11;99711.19;6865643;28;20220;-83
2021/03/03 20:01:30;;;;;;;27.20;14.17;;;;;;;12.86;46.42;99714.78;6864957;28;20281;-83